Time;durP1;ratioP1;P1;durP2;ratioP2;P2;SDS_P1;SDS_P2;PMS_P1;PMS_P2;Temp;Humidity;BMP_temperature;BMP_pressure;BME280_temperature;BME280_humidity;BME280_pressure;Samples;Min_cycle;Max_cycle;Signal;HPM_P1;HPM_P2
2022/07/12 00:02:19;;;;;;;10.85;1.45;;;;;;;13.73;64.20;101156.76;1735166;80;25840;-66
2022/07/12 00:04:45;;;;;;;3.25;1.10;;;;;;;13.68;64.22;101158.33;1733404;80;27415;-66
2022/07/12 00:07:11;;;;;;;3.85;1.37;;;;;;;13.64;64.46;101160.77;1715750;81;98715;-66
2022/07/12 00:09:37;;;;;;;7.65;1.50;;;;;;;13.60;64.56;101165.42;1755754;79;25765;-66
2022/07/12 00:12:04;;;;;;;3.00;1.07;;;;;;;13.58;64.69;101159.23;1753994;79;98703;-66
2022/07/12 00:14:30;;;;;;;3.90;1.30;;;;;;;13.56;64.84;101157.56;1751625;79;26228;-65
2022/07/12 00:16:57;;;;;;;2.52;1.52;;;;;;;13.54;64.93;101160.80;1760437;79;28186;-65
2022/07/12 00:19:23;;;;;;;4.00;1.25;;;;;;;13.52;65.04;101161.34;1757728;79;98581;-67
2022/07/12 00:21:49;;;;;;;6.65;1.20;;;;;;;13.48;65.13;101163.31;1763452;79;26236;-66
2022/07/12 00:24:15;;;;;;;5.85;1.30;;;;;;;13.47;65.29;101163.38;1753896;79;98689;-67
2022/07/12 00:26:41;;;;;;;3.17;1.32;;;;;;;13.46;65.40;101165.67;1758615;79;25647;-67
2022/07/12 00:29:07;;;;;;;5.72;1.50;;;;;;;13.45;65.46;101163.93;1754539;79;99188;-67
2022/07/12 00:31:33;;;;;;;4.08;1.52;;;;;;;13.43;65.54;101161.78;1748892;79;26444;-66
2022/07/12 00:33:59;;;;;;;2.87;1.52;;;;;;;13.41;65.63;101166.36;1759982;79;26325;-67
2022/07/12 00:36:25;;;;;;;5.03;1.17;;;;;;;13.34;65.72;101160.39;1756066;79;98809;-67
2022/07/12 00:38:53;;;;;;;10.70;1.70;;;;;;;13.26;65.82;101160.75;1755608;79;25794;-67
2022/07/12 00:41:19;;;;;;;2.77;1.25;;;;;;;13.22;65.94;101159.61;1756554;79;99068;-67
2022/07/12 00:43:45;;;;;;;3.02;1.17;;;;;;;13.15;66.11;101164.38;1757907;79;27153;-67
2022/07/12 00:46:13;;;;;;;4.50;1.65;;;;;;;13.15;66.32;101164.84;1754425;79;25834;-66
2022/07/12 00:48:39;;;;;;;6.75;1.98;;;;;;;13.14;66.49;101160.41;1754152;79;99176;-66
2022/07/12 00:51:06;;;;;;;5.25;1.75;;;;;;;13.14;66.53;101161.75;1770128;79;25828;-67
2022/07/12 00:53:32;;;;;;;3.92;1.70;;;;;;;13.13;66.72;101160.88;1754919;79;98904;-67
2022/07/12 00:55:59;;;;;;;5.33;2.30;;;;;;;13.12;66.81;101161.82;1754452;79;25744;-66
2022/07/12 00:58:28;;;;;;;5.35;2.02;;;;;;;13.12;66.96;101160.95;1722083;80;26535;-67
2022/07/12 01:00:56;;;;;;;5.05;1.90;;;;;;;13.12;67.06;101162.29;1756541;79;98727;-67
2022/07/12 01:03:22;;;;;;;3.15;1.90;;;;;;;13.12;67.23;101162.29;1753651;79;25762;-67
2022/07/12 01:05:49;;;;;;;6.35;2.05;;;;;;;13.14;67.39;101160.41;1751984;79;98813;-67
2022/07/12 01:08:16;;;;;;;3.50;1.80;;;;;;;13.16;67.45;101154.04;1746649;80;25651;-66
2022/07/12 01:10:43;;;;;;;7.72;1.55;;;;;;;13.17;67.58;101152.22;1737715;80;25908;-67
2022/07/12 01:13:09;;;;;;;3.02;1.70;;;;;;;13.20;67.64;101154.30;1726423;80;98773;-67
2022/07/12 01:15:36;;;;;;;6.60;1.60;;;;;;;13.23;67.79;101147.91;1739621;80;25904;-67
2022/07/12 01:18:03;;;;;;;3.67;1.42;;;;;;;13.30;67.85;101156.09;1744001;80;98652;-66
2022/07/12 01:20:30;;;;;;;5.30;1.60;;;;;;;13.34;67.94;101148.28;1744214;79;26223;-67
2022/07/12 01:22:58;;;;;;;5.80;1.50;;;;;;;13.40;68.05;101143.95;1746323;79;25856;-67
2022/07/12 01:25:24;;;;;;;5.78;1.30;;;;;;;13.45;68.11;101145.08;1740345;80;98883;-67
2022/07/12 01:27:51;;;;;;;8.98;1.98;;;;;;;13.49;68.15;101148.91;1734519;80;25833;-67
2022/07/12 01:30:16;;;;;;;8.08;1.98;;;;;;;13.53;68.23;101148.28;1745262;79;98783;-67
2022/07/12 01:32:43;;;;;;;3.20;1.12;;;;;;;13.55;68.28;101140.53;1726784;80;25772;-67
2022/07/12 01:35:09;;;;;;;3.30;1.37;;;;;;;13.58;68.37;101144.90;1726194;80;98920;-67
2022/07/12 01:37:41;;;;;;;3.60;1.30;;;;;;;13.60;68.42;101143.00;1723906;80;25817;-67
2022/07/12 01:40:10;;;;;;;3.80;1.20;;;;;;;13.60;68.49;101134.45;1725741;80;25720;-67
2022/07/12 01:42:37;;;;;;;6.78;1.40;;;;;;;13.63;68.56;101134.30;1726880;80;98688;-67
2022/07/12 01:45:06;;;;;;;3.15;1.05;;;;;;;13.64;68.63;101140.09;1741274;80;25916;-67
2022/07/12 01:47:35;;;;;;;6.28;1.67;;;;;;;13.65;68.73;101128.37;1744839;80;98956;-67
2022/07/12 01:50:06;;;;;;;5.47;1.95;;;;;;;13.64;68.80;101123.05;1744865;81;25865;-65
2022/07/12 01:52:33;;;;;;;3.62;1.45;;;;;;;13.71;68.93;101127.20;1729658;80;25716;-65
2022/07/12 01:55:00;;;;;;;3.15;1.25;;;;;;;13.71;69.13;101131.23;1730261;80;98607;-65
2022/07/12 01:57:26;;;;;;;2.52;1.25;;;;;;;13.71;69.32;101129.89;1734117;80;25793;-65
2022/07/12 01:59:54;;;;;;;3.62;0.93;;;;;;;13.73;69.38;101135.20;1733205;80;98659;-65
2022/07/12 02:02:19;;;;;;;1.87;1.00;;;;;;;13.74;69.48;101133.78;1726244;81;26457;-66
2022/07/12 02:04:49;;;;;;;3.52;0.80;;;;;;;13.78;69.61;101130.47;1746440;80;25762;-65
2022/07/12 02:07:19;;;;;;;3.85;1.25;;;;;;;13.78;69.63;101135.37;1735389;79;98944;-65
2022/07/12 02:09:49;;;;;;;2.58;1.05;;;;;;;13.80;69.69;101129.92;1753973;79;25765;-66
2022/07/12 02:12:19;;;;;;;7.62;1.60;;;;;;;13.80;69.77;101128.57;1734235;79;98182;-67
2022/07/12 02:14:45;;;;;;;5.15;1.30;;;;;;;13.83;69.94;101123.03;1740074;79;26397;-66
2022/07/12 02:17:16;;;;;;;13.03;1.12;;;;;;;13.86;69.96;101132.31;1765636;79;98153;-67
2022/07/12 02:19:46;;;;;;;;;;;;;;;13.86;70.13;101132.31;1780626;78;26817;-65
2022/07/12 02:22:12;;;;;;;3.15;1.50;;;;;;;13.87;70.32;101126.84;1772260;78;25769;-65
2022/07/12 02:24:38;;;;;;;2.37;1.37;;;;;;;13.86;70.32;101133.19;1766545;78;98635;-65
2022/07/12 02:27:05;;;;;;;1.87;1.07;;;;;;;13.89;70.37;101134.38;1753383;79;25977;-65
2022/07/12 02:29:31;;;;;;;7.40;1.15;;;;;;;13.92;70.44;101134.70;1746082;79;98953;-65
2022/07/12 02:31:58;;;;;;;5.65;1.37;;;;;;;13.94;70.41;101135.50;1762136;79;27336;-66
2022/07/12 02:34:24;;;;;;;3.62;1.50;;;;;;;13.96;70.44;101129.56;1760548;79;26777;-65
2022/07/12 02:36:49;;;;;;;4.12;1.20;;;;;;;13.97;70.57;101130.83;1752748;79;98683;-65
2022/07/12 02:39:15;;;;;;;2.90;1.40;;;;;;;13.98;70.66;101137.09;1750094;79;25849;-65
2022/07/12 02:41:41;;;;;;;4.62;1.50;;;;;;;13.98;70.81;101131.70;1751972;79;98991;-67
2022/07/12 02:44:07;;;;;;;4.22;1.35;;;;;;;14.01;70.75;101139.64;1743555;79;27418;-65
2022/07/12 02:46:33;;;;;;;2.83;1.30;;;;;;;14.01;70.84;101134.72;1707920;81;25850;-65
2022/07/12 02:49:01;;;;;;;4.70;1.32;;;;;;;13.98;70.95;101138.45;1718168;81;99115;-65
2022/07/12 02:51:27;;;;;;;5.62;1.17;;;;;;;13.96;71.09;101137.64;1705445;81;25740;-65
2022/07/12 02:53:53;;;;;;;7.05;1.80;;;;;;;13.93;71.12;101134.63;1749904;79;98869;-65
2022/07/12 02:56:19;;;;;;;6.28;1.60;;;;;;;13.93;71.48;101145.88;1751323;79;27419;-65
2022/07/12 02:58:45;;;;;;;3.15;1.02;;;;;;;13.91;71.50;101137.88;1749931;79;25776;-65
2022/07/12 03:01:11;;;;;;;13.30;2.02;;;;;;;13.91;71.40;101146.43;1749669;79;98662;-65
2022/07/12 03:03:37;;;;;;;5.72;1.92;;;;;;;13.90;71.60;101141.99;1755841;79;26359;-66
2022/07/12 03:06:03;;;;;;;7.60;1.80;;;;;;;13.88;71.61;101143.41;1750597;79;98806;-66
2022/07/12 03:08:29;;;;;;;5.97;1.47;;;;;;;13.88;71.61;101147.45;1739131;80;29507;-65
2022/07/12 03:10:55;;;;;;;4.97;1.62;;;;;;;13.89;71.64;101146.51;1745346;80;27210;-66
2022/07/12 03:13:21;;;;;;;3.37;1.60;;;;;;;13.90;71.72;101143.34;1743264;80;98773;-66
2022/07/12 03:15:47;;;;;;;3.60;1.50;;;;;;;13.90;71.88;101149.60;1747453;79;27658;-65
2022/07/12 03:18:13;;;;;;;4.08;1.70;;;;;;;13.91;71.94;101152.70;1729342;80;98725;-65
2022/07/12 03:20:39;;;;;;;4.50;1.92;;;;;;;13.91;71.93;101145.95;1740880;80;27359;-65
2022/07/12 03:23:05;;;;;;;3.50;1.45;;;;;;;13.91;71.93;101149.13;1731067;80;26634;-65
2022/07/12 03:25:31;;;;;;;4.75;1.80;;;;;;;13.92;71.96;101148.18;1748886;79;98725;-65
2022/07/12 03:27:57;;;;;;;6.72;2.15;;;;;;;13.93;72.04;101148.11;1749845;79;25950;-65
2022/07/12 03:30:22;;;;;;;5.60;1.60;;;;;;;13.95;72.03;101152.07;1746339;80;98595;-66
2022/07/12 03:32:49;;;;;;;5.87;1.62;;;;;;;13.97;72.06;101156.91;1747445;80;27527;-66
2022/07/12 03:35:15;;;;;;;3.50;1.60;;;;;;;13.96;72.12;101151.99;1736441;80;25652;-66
2022/07/12 03:37:49;;;;;;;3.35;1.67;;;;;;;13.99;72.25;101160.41;1738238;80;98498;-65
2022/07/12 03:40:18;;;;;;;5.78;1.82;;;;;;;14.02;72.43;101158.03;1729495;80;26683;-65
2022/07/12 03:42:46;;;;;;;9.08;1.80;;;;;;;14.01;72.35;101155.81;1749868;79;98658;-65
2022/07/12 03:45:14;;;;;;;3.58;1.80;;;;;;;14.03;72.33;101157.95;1746004;80;28424;-65
2022/07/12 03:47:41;;;;;;;8.00;2.25;;;;;;;14.05;72.39;101160.58;1733658;80;98887;-65
2022/07/12 03:50:11;;;;;;;5.70;1.65;;;;;;;14.06;72.48;101158.28;1729864;80;25966;-65
2022/07/12 03:52:38;;;;;;;6.65;2.02;;;;;;;14.08;72.51;101163.99;1732860;80;25744;-65
2022/07/12 03:55:06;;;;;;;9.73;2.00;;;;;;;14.10;72.54;101161.22;1736146;80;98754;-65
2022/07/12 03:57:33;;;;;;;4.00;1.87;;;;;;;14.12;72.62;101164.23;1738774;79;27489;-65
2022/07/12 04:00:00;;;;;;;9.58;2.20;;;;;;;14.16;72.74;101158.22;1726977;81;98866;-65
2022/07/12 04:02:27;;;;;;;5.45;1.90;;;;;;;14.16;72.70;101156.39;1731412;80;25753;-65
2022/07/12 04:04:52;;;;;;;5.70;1.60;;;;;;;14.20;72.65;101157.12;1732493;80;25876;-65
2022/07/12 04:07:20;;;;;;;7.00;1.75;;;;;;;14.23;72.67;101153.80;1725671;80;98950;-66
2022/07/12 04:09:46;;;;;;;6.53;1.75;;;;;;;14.26;72.65;101155.46;1743389;80;26824;-66
2022/07/12 04:12:11;;;;;;;5.20;1.60;;;;;;;14.27;72.65;101154.03;1733951;80;98705;-65
2022/07/12 04:14:37;;;;;;;11.03;1.92;;;;;;;14.29;72.67;101149.91;1745212;80;25921;-65
2022/07/12 04:17:05;;;;;;;7.45;2.15;;;;;;;14.32;72.65;101152.93;1742309;80;27684;-65
2022/07/12 04:19:32;;;;;;;9.13;2.00;;;;;;;14.34;72.61;101153.72;1724066;80;98807;-65
2022/07/12 04:21:59;;;;;;;7.85;1.80;;;;;;;14.36;72.71;101152.70;1743085;80;27388;-65
2022/07/12 04:24:26;;;;;;;7.37;1.60;;;;;;;14.36;72.70;101155.39;1738022;80;98736;-65
2022/07/12 04:26:52;;;;;;;8.23;1.92;;;;;;;14.38;72.79;101148.09;1745808;79;26123;-65
2022/07/12 04:29:20;;;;;;;4.12;2.15;;;;;;;14.39;72.82;101148.50;1742319;80;99004;-66
2022/07/12 04:31:45;;;;;;;4.08;2.00;;;;;;;14.42;72.81;101145.67;1752056;80;25351;-65
2022/07/12 04:34:16;;;;;;;5.08;1.67;;;;;;;14.47;72.81;101146.78;1733606;82;27388;-65
2022/07/12 04:36:39;;;;;;;7.87;2.20;;;;;;;14.49;72.90;101144.41;1729805;80;98742;-65
2022/07/12 04:39:05;;;;;;;8.48;2.05;;;;;;;14.50;72.95;101142.11;1731801;80;25732;-65
2022/07/12 04:41:33;;;;;;;7.28;1.92;;;;;;;14.54;72.94;101140.12;1743753;80;98921;-66
2022/07/12 04:44:04;;;;;;;5.00;1.72;;;;;;;14.56;73.01;101140.44;1742384;80;27144;-66
2022/07/12 04:46:29;;;;;;;7.57;1.90;;;;;;;14.59;73.01;101135.36;1726865;80;30555;-65
2022/07/12 04:48:56;;;;;;;8.65;1.95;;;;;;;14.60;73.04;101144.73;1729042;80;98614;-65
2022/07/12 04:51:21;;;;;;;4.55;1.82;;;;;;;14.64;73.04;101139.17;1725808;80;26448;-65
2022/07/12 04:53:48;;;;;;;6.30;1.70;;;;;;;14.71;73.07;101136.55;1728363;80;98922;-66
2022/07/12 04:56:14;;;;;;;6.30;1.80;;;;;;;14.76;72.98;101139.88;1731995;80;25820;-65
2022/07/12 04:58:40;;;;;;;6.58;2.02;;;;;;;14.83;72.97;101138.59;1725101;80;27465;-65
2022/07/12 05:01:07;;;;;;;6.47;1.95;;;;;;;14.87;72.98;101144.23;1726807;80;98649;-65
2022/07/12 05:03:36;;;;;;;4.92;1.95;;;;;;;14.90;72.90;101136.84;1726999;80;25807;-66
2022/07/12 05:06:03;;;;;;;8.33;1.93;;;;;;;14.97;72.91;101132.46;1726034;80;98730;-68
2022/07/12 05:08:29;;;;;;;6.45;2.35;;;;;;;15.02;72.83;101133.95;1747194;79;26126;-66
2022/07/12 05:10:55;;;;;;;5.72;1.70;;;;;;;15.09;72.84;101135.84;1763515;78;27252;-67
2022/07/12 05:13:21;;;;;;;3.33;1.85;;;;;;;15.16;72.79;101133.21;1770873;78;99170;-67
2022/07/12 05:15:47;;;;;;;7.22;1.52;;;;;;;15.21;72.72;101136.53;1769935;78;25960;-67
2022/07/12 05:18:13;;;;;;;5.80;1.90;;;;;;;15.21;72.66;101139.23;1762622;78;98756;-67
2022/07/12 05:20:39;;;;;;;8.23;1.92;;;;;;;15.22;72.70;101135.58;1767733;78;25893;-67
2022/07/12 05:23:04;;;;;;;3.72;1.67;;;;;;;15.23;72.65;101136.84;1766869;78;27468;-67
2022/07/12 05:25:30;;;;;;;2.95;1.80;;;;;;;15.28;72.64;101136.59;1765959;78;98699;-67
2022/07/12 05:27:56;;;;;;;5.90;2.10;;;;;;;15.32;72.65;101137.30;1768413;78;25946;-67
2022/07/12 05:30:22;;;;;;;3.62;1.57;;;;;;;15.38;72.63;101134.25;1760280;78;98791;-67
2022/07/12 05:32:49;;;;;;;9.38;1.77;;;;;;;15.42;72.61;101136.70;1762111;78;26390;-66
2022/07/12 05:35:15;;;;;;;6.60;1.80;;;;;;;15.48;72.55;101136.84;1726745;80;27479;-67
2022/07/12 05:37:41;;;;;;;5.55;1.82;;;;;;;15.53;72.54;101139.67;1716324;80;98480;-67
2022/07/12 05:40:08;;;;;;;5.25;1.75;;;;;;;15.56;72.43;101142.20;1710072;81;25763;-66
2022/07/12 05:42:35;;;;;;;6.35;1.67;;;;;;;15.60;72.45;101144.29;1753460;79;98714;-68
2022/07/12 05:45:01;;;;;;;10.90;2.02;;;;;;;15.68;72.44;101138.42;1760402;79;26096;-65
2022/07/12 05:47:26;;;;;;;4.65;1.77;;;;;;;15.70;72.34;101132.45;1758550;79;99027;-68
2022/07/12 05:49:52;;;;;;;6.35;2.20;;;;;;;15.74;72.30;101133.54;1755191;79;25714;-67
2022/07/12 05:55:02;;;;;;;5.25;1.60;;;;;;;15.85;72.23;101131.09;1758117;79;98597;-66
2022/07/12 05:57:28;;;;;;;5.62;1.60;;;;;;;15.91;72.16;101136.62;1758418;79;25726;-66
2022/07/12 05:59:55;;;;;;;7.67;1.42;;;;;;;15.95;72.10;101133.27;1751476;79;98853;-66
2022/07/12 06:02:20;;;;;;;10.80;2.62;;;;;;;15.97;72.04;101132.22;1760905;79;26553;-66
2022/07/12 06:04:46;;;;;;;4.20;1.10;;;;;;;16.03;72.03;101135.92;1754048;79;26718;-67
2022/07/12 06:07:12;;;;;;;8.43;1.62;;;;;;;16.07;71.93;101135.25;1753559;79;98786;-67
2022/07/12 06:09:40;;;;;;;4.28;1.82;;;;;;;16.05;71.84;101140.75;1742392;79;25836;-67
2022/07/12 06:12:08;;;;;;;6.37;1.92;;;;;;;16.09;71.86;101142.80;1733935;80;98716;-67
2022/07/12 06:14:34;;;;;;;2.40;1.32;;;;;;;16.15;71.84;101138.38;1741698;80;25834;-67
2022/07/12 06:17:00;;;;;;;5.22;1.50;;;;;;;16.23;71.82;101141.52;1737427;80;26131;-66
2022/07/12 06:19:28;;;;;;;3.50;1.32;;;;;;;16.24;71.68;101144.61;1744244;80;98699;-66
2022/07/12 06:21:54;;;;;;;2.83;1.25;;;;;;;16.27;71.62;101140.37;1741175;80;25646;-66
2022/07/12 06:24:20;;;;;;;8.63;1.70;;;;;;;16.30;71.56;101135.26;1741501;80;98503;-65
2022/07/12 06:26:46;;;;;;;3.25;1.80;;;;;;;16.36;71.50;101141.66;1734360;80;26011;-66
2022/07/12 06:29:12;;;;;;;3.22;1.32;;;;;;;16.39;71.44;101136.06;1735466;80;25732;-67
2022/07/12 06:31:40;;;;;;;10.65;1.80;;;;;;;16.45;71.42;101131.16;1746908;79;98410;-66
2022/07/12 06:34:05;;;;;;;3.33;1.45;;;;;;;16.54;71.42;101138.72;1748324;79;25814;-68
2022/07/12 06:36:31;;;;;;;5.83;1.70;;;;;;;16.62;71.27;101136.91;1743912;79;99237;-66
2022/07/12 06:38:57;;;;;;;3.00;1.22;;;;;;;16.67;71.21;101138.02;1742347;79;25783;-67
2022/07/12 06:41:24;;;;;;;5.25;2.00;;;;;;;16.72;71.07;101140.83;1743478;79;99149;-67
2022/07/12 06:43:50;;;;;;;6.90;1.85;;;;;;;16.75;70.97;101139.77;1747845;79;26350;-66
2022/07/12 06:46:16;;;;;;;5.12;1.87;;;;;;;16.79;70.92;101144.03;1746085;79;25837;-65
2022/07/12 06:48:42;;;;;;;8.60;1.42;;;;;;;16.82;70.75;101137.08;1741518;79;99066;-66
2022/07/12 06:51:08;;;;;;;4.83;1.75;;;;;;;16.85;70.68;101132.83;1740521;80;25776;-66
2022/07/12 06:53:33;;;;;;;5.90;1.42;;;;;;;16.91;70.58;101130.22;1738690;79;98849;-67
2022/07/12 06:56:00;;;;;;;7.55;1.95;;;;;;;16.98;70.54;101122.98;1739413;79;25782;-67
2022/07/12 06:58:26;;;;;;;4.28;1.35;;;;;;;17.06;70.44;101123.38;1749512;79;26312;-66
2022/07/12 07:00:52;;;;;;;8.70;1.77;;;;;;;17.14;70.35;101119.70;1746576;79;98653;-66
2022/07/12 07:03:18;;;;;;;4.15;1.40;;;;;;;17.23;70.19;101122.30;1743724;79;25709;-67
2022/07/12 07:05:44;;;;;;;6.37;1.47;;;;;;;17.28;70.04;101114.76;1743689;79;98777;-66
2022/07/12 07:08:10;;;;;;;5.45;1.32;;;;;;;17.36;69.87;101121.04;1750621;79;26513;-66
2022/07/12 07:10:35;;;;;;;1.98;1.15;;;;;;;17.40;69.60;101120.75;1780714;78;25777;-67
2022/07/12 07:13:02;;;;;;;3.00;1.20;;;;;;;17.41;69.30;101121.13;1777411;78;98570;-67
2022/07/12 07:15:27;;;;;;;5.35;1.47;;;;;;;17.47;68.94;101115.32;1780954;78;26246;-67
2022/07/12 07:17:54;;;;;;;4.35;1.87;;;;;;;17.57;68.94;101115.59;1780241;78;98840;-67
2022/07/12 07:20:19;;;;;;;4.90;1.30;;;;;;;17.70;68.84;101108.92;1779012;78;27535;-67
2022/07/12 07:22:45;;;;;;;5.90;1.32;;;;;;;17.82;68.59;101123.03;1780537;78;25919;-66
2022/07/12 07:25:11;;;;;;;4.85;1.10;;;;;;;17.86;68.31;101122.34;1779646;78;98751;-67
2022/07/12 07:27:40;;;;;;;3.92;1.50;;;;;;;17.90;68.22;101124.75;1785498;78;25696;-68
2022/07/12 07:32:52;;;;;;;12.68;1.42;;;;;;;18.03;67.83;101121.61;1785511;78;26295;-67
2022/07/12 07:35:19;;;;;;;6.40;1.20;;;;;;;18.12;67.50;101123.70;1778962;78;98903;-67
2022/07/12 07:37:46;;;;;;;5.22;1.10;;;;;;;18.20;67.30;101119.60;1778230;78;27388;-67
2022/07/12 07:40:12;;;;;;;7.20;1.02;;;;;;;18.24;67.04;101121.10;1778328;78;25909;-67
2022/07/12 07:42:38;;;;;;;2.95;1.20;;;;;;;18.31;66.88;101123.30;1777974;78;98738;-67
2022/07/12 07:45:06;;;;;;;5.15;1.27;;;;;;;18.34;66.60;101120.38;1778909;78;25748;-67
2022/07/12 07:47:45;;;;;;;6.60;1.30;;;;;;;18.39;66.52;101127.72;1784071;78;98873;-68
2022/07/12 07:50:11;;;;;;;5.55;1.00;;;;;;;18.50;66.21;101129.70;1781817;78;27462;-67
2022/07/12 07:52:36;;;;;;;3.70;0.82;;;;;;;18.63;65.54;101128.39;1784639;78;26766;-69
2022/07/12 07:55:03;;;;;;;3.05;0.85;;;;;;;18.68;65.15;101129.81;1784996;78;99055;-70
2022/07/12 07:57:29;;;;;;;1.72;0.80;;;;;;;18.67;64.81;101121.29;1782890;78;26300;-70
2022/07/12 07:59:55;;;;;;;2.20;0.75;;;;;;;18.68;64.34;101125.74;1780145;78;99198;-69
2022/07/12 08:02:21;;;;;;;8.98;1.25;;;;;;;18.70;63.99;101115.64;1784086;78;27374;-70
2022/07/12 08:04:47;;;;;;;5.85;1.72;;;;;;;18.75;64.12;101117.55;1783732;78;26321;-69
2022/07/12 08:07:13;;;;;;;4.80;0.90;;;;;;;18.82;64.04;101113.92;1787008;78;98772;-70
2022/07/12 08:09:42;;;;;;;7.15;1.32;;;;;;;18.92;63.88;101119.57;1772764;78;26298;-70
2022/07/12 08:12:08;;;;;;;3.72;0.90;;;;;;;18.98;63.20;101114.58;1757430;78;98801;-70
2022/07/12 08:14:34;;;;;;;1.52;1.00;;;;;;;19.02;62.41;101122.89;1762648;78;28096;-70
2022/07/12 08:16:59;;;;;;;2.12;1.00;;;;;;;19.11;62.28;101110.49;1774019;78;25914;-71
2022/07/12 08:19:25;;;;;;;3.85;0.80;;;;;;;19.17;62.45;101118.20;1780424;78;98915;-70
2022/07/12 08:21:51;;;;;;;1.60;0.82;;;;;;;19.23;62.15;101119.13;1775031;78;25855;-70
2022/07/12 08:24:17;;;;;;;2.45;1.20;;;;;;;19.25;61.41;101119.88;1766800;78;98610;-71
2022/07/12 08:26:43;;;;;;;2.80;0.70;;;;;;;19.27;61.02;101117.92;1776221;78;27462;-70
2022/07/12 08:29:09;;;;;;;2.17;1.10;;;;;;;19.38;61.19;101123.95;1772436;78;25705;-69
2022/07/12 08:31:36;;;;;;;2.37;0.82;;;;;;;19.49;60.75;101123.16;1776112;78;98399;-71
2022/07/12 08:34:02;;;;;;;6.03;0.80;;;;;;;19.63;60.95;101114.90;1772772;78;26219;-70
2022/07/12 08:36:28;;;;;;;1.30;0.53;;;;;;;19.70;60.68;101125.21;1760684;78;98697;-69
2022/07/12 08:38:54;;;;;;;2.08;0.72;;;;;;;19.72;59.29;101127.82;1773089;78;28153;-69
2022/07/12 08:41:20;;;;;;;1.95;0.70;;;;;;;19.70;58.80;101127.94;1760965;78;98822;-70
2022/07/12 08:43:46;;;;;;;3.72;1.20;;;;;;;19.84;58.86;101132.35;1775613;78;25715;-70
2022/07/12 08:46:14;;;;;;;4.05;0.65;;;;;;;19.97;58.42;101116.85;1767733;78;25831;-70
2022/07/12 08:48:42;;;;;;;1.25;0.75;;;;;;;20.03;58.50;101115.52;1773049;78;98610;-70
2022/07/12 08:51:14;;;;;;;6.95;0.75;;;;;;;20.16;57.27;101120.41;1773998;78;27382;-70
2022/07/12 08:53:44;;;;;;;2.50;0.70;;;;;;;20.23;57.70;101120.81;1778547;78;98842;-70
2022/07/12 08:56:33;;;;;;;6.78;1.17;;;;;;;20.25;57.00;101115.63;1779904;78;26578;-69
2022/07/12 08:59:18;;;;;;;6.33;0.70;;;;;;;20.25;56.08;101122.44;1770226;78;26372;-69
2022/07/12 09:01:52;;;;;;;2.90;0.82;;;;;;;20.32;56.01;101110.59;1767646;78;98431;-69
2022/07/12 09:04:22;;;;;;;2.40;0.50;;;;;;;20.43;56.09;101115.23;1773234;78;27554;-69
2022/07/12 09:06:48;;;;;;;2.00;0.72;;;;;;;20.58;55.86;101109.47;1778621;78;98685;-68
2022/07/12 09:09:33;;;;;;;3.58;1.17;;;;;;;20.75;55.82;101106.80;1759138;79;25707;-68
2022/07/12 09:11:59;;;;;;;3.22;0.60;;;;;;;20.89;52.67;101116.58;1728931;80;99151;-66
2022/07/12 09:14:30;;;;;;;2.98;0.55;;;;;;;20.83;52.39;101128.83;1726550;80;25854;-67
2022/07/12 09:17:10;;;;;;;3.47;0.60;;;;;;;20.85;51.94;101120.03;1719231;80;29511;-67
2022/07/12 09:19:34;;;;;;;5.08;0.90;;;;;;;20.95;52.32;101115.59;1726550;80;99021;-67
2022/07/12 09:22:00;;;;;;;1.05;0.50;;;;;;;21.05;52.10;101115.23;1727410;80;26617;-66
2022/07/12 09:24:27;;;;;;;1.60;0.75;;;;;;;21.13;51.84;101115.12;1731262;80;98746;-67
2022/07/12 09:27:04;;;;;;;1.12;0.98;;;;;;;21.19;50.97;101111.91;1728014;80;26988;-67
2022/07/12 09:29:32;;;;;;;0.85;0.30;;;;;;;21.21;51.54;101127.15;1726264;80;98889;-68
2022/07/12 09:37:44;;;;;;;3.85;0.80;;;;;;;21.20;50.17;101115.00;1725497;80;98569;-65
2022/07/12 09:40:10;;;;;;;3.83;0.40;;;;;;;21.25;49.95;101107.35;1725920;80;25735;-65
2022/07/12 09:42:39;;;;;;;0.70;0.35;;;;;;;21.32;49.96;101108.09;1725634;80;98660;-66
2022/07/12 09:45:09;;;;;;;0.93;0.33;;;;;;;21.48;49.76;101119.99;1726602;80;27591;-65
2022/07/12 09:47:35;;;;;;;0.62;0.45;;;;;;;21.56;48.61;101116.64;1730887;80;98889;-66
2022/07/12 09:50:06;;;;;;;2.10;0.60;;;;;;;21.61;48.75;101108.45;1728242;80;25818;-66
2022/07/12 09:52:36;;;;;;;1.12;0.50;;;;;;;21.56;48.82;101107.09;1732913;80;26370;-66
2022/07/12 09:55:04;;;;;;;2.67;0.53;;;;;;;21.41;48.61;101106.48;1725490;80;98790;-66
2022/07/12 09:57:33;;;;;;;3.67;0.70;;;;;;;21.41;48.45;101107.84;1724904;80;25765;-66
2022/07/12 10:00:01;;;;;;;3.47;0.95;;;;;;;21.41;48.72;101113.30;1727036;80;98862;-66
2022/07/12 10:02:27;;;;;;;3.58;0.93;;;;;;;21.42;48.68;101112.80;1723353;80;25777;-66
2022/07/12 10:04:55;;;;;;;0.42;0.42;;;;;;;21.44;49.35;101103.51;1728912;80;26598;-66
2022/07/12 10:07:21;;;;;;;4.83;0.75;;;;;;;21.49;49.07;101104.00;1724553;80;98648;-66
2022/07/12 10:09:53;;;;;;;1.60;0.55;;;;;;;21.39;48.85;101120.24;1728442;80;25811;-66
2022/07/12 10:12:22;;;;;;;5.70;0.68;;;;;;;21.29;48.72;101112.93;1732997;80;98751;-66
2022/07/12 10:14:53;;;;;;;1.00;0.85;;;;;;;21.25;48.44;101116.89;1738412;80;25743;-66
2022/07/12 10:17:24;;;;;;;2.75;0.30;;;;;;;21.28;48.54;101102.52;1748003;79;25719;-66
2022/07/12 10:20:18;;;;;;;4.78;1.00;;;;;;;21.41;48.36;101105.13;1737001;80;97643;-65
2022/07/12 10:22:45;;;;;;;3.30;0.65;;;;;;;21.49;48.03;101098.55;1726476;80;25827;-66
2022/07/12 10:25:32;;;;;;;3.80;0.45;;;;;;;21.64;48.31;101098.65;1730005;80;98643;-66
2022/07/12 10:28:01;;;;;;;1.47;0.57;;;;;;;21.88;48.33;101098.97;1738563;80;26084;-67
2022/07/12 10:30:27;;;;;;;0.62;0.60;;;;;;;21.98;47.79;101105.39;1724704;80;98650;-66
2022/07/12 10:32:58;;;;;;;1.92;0.60;;;;;;;22.03;46.85;101096.36;1729991;81;26845;-66
2022/07/12 10:35:28;;;;;;;0.60;0.40;;;;;;;22.21;46.58;101083.88;1729288;80;26408;-66
2022/07/12 10:38:16;;;;;;;5.75;0.50;;;;;;;22.36;44.83;101096.72;1722194;80;98358;-66
2022/07/12 10:40:45;;;;;;;7.03;0.68;;;;;;;22.28;45.37;101084.22;1725791;80;26632;-67
2022/07/12 10:43:15;;;;;;;2.20;0.60;;;;;;;22.35;45.13;101086.80;1727510;80;98615;-66
2022/07/12 10:45:45;;;;;;;2.63;0.37;;;;;;;22.42;44.84;101087.14;1744323;80;28413;-66
2022/07/12 10:48:19;;;;;;;1.00;0.53;;;;;;;22.33;45.30;101072.41;1733423;80;98805;-66
2022/07/12 10:50:55;;;;;;;17.48;1.70;;;;;;;22.54;45.51;101075.15;1731342;80;25691;-66
2022/07/12 10:53:37;;;;;;;1.00;0.40;;;;;;;22.83;45.45;101091.77;1743261;80;25695;-65
2022/07/12 10:56:25;;;;;;;7.40;0.62;;;;;;;22.95;44.25;101080.63;1741258;80;97713;-66
2022/07/12 10:58:59;;;;;;;12.03;1.02;;;;;;;22.93;44.11;101081.77;1737031;80;27464;-65
2022/07/12 11:01:33;;;;;;;3.70;0.95;;;;;;;22.79;43.72;101081.61;1724513;80;99156;-65
2022/07/12 11:04:10;;;;;;;4.53;0.70;;;;;;;22.65;44.43;101089.61;1729866;81;25768;-66
2022/07/12 11:06:40;;;;;;;5.03;0.90;;;;;;;22.67;45.08;101084.02;1743568;80;98553;-65
2022/07/12 11:09:12;;;;;;;0.35;0.35;;;;;;;22.71;45.13;101092.31;1744596;79;26395;-66
2022/07/12 11:11:50;;;;;;;1.20;0.40;;;;;;;22.67;44.40;101089.48;1753104;79;98793;-67
2022/07/12 11:14:25;;;;;;;1.10;0.80;;;;;;;22.63;44.25;101087.52;1755993;79;26609;-66
2022/07/12 11:16:54;;;;;;;2.62;0.70;;;;;;;22.74;44.74;101080.25;1758975;79;26511;-67
2022/07/12 11:19:29;;;;;;;3.50;0.80;;;;;;;22.91;45.07;101070.09;1757132;79;99007;-67
2022/07/12 11:21:58;;;;;;;1.37;0.40;;;;;;;23.07;45.06;101058.16;1758703;79;25738;-66
2022/07/12 11:24:30;;;;;;;6.60;0.88;;;;;;;23.07;43.75;101063.64;1747811;79;98705;-67
2022/07/12 11:26:56;;;;;;;3.37;0.65;;;;;;;23.09;43.15;101072.57;1732317;78;25794;-67
2022/07/12 11:29:23;;;;;;;5.33;0.93;;;;;;;23.14;43.12;101083.09;1761243;79;25784;-66
2022/07/12 11:31:49;;;;;;;4.92;0.50;;;;;;;23.08;40.59;101086.38;1754850;79;97932;-66
2022/07/12 11:34:25;;;;;;;5.15;0.50;;;;;;;22.89;41.50;101081.17;1730397;79;26067;-66
2022/07/12 11:36:53;;;;;;;3.17;0.47;;;;;;;22.90;41.39;101063.77;1750935;79;98612;-66
2022/07/12 11:39:40;;;;;;;2.85;1.02;;;;;;;23.07;42.38;101065.00;1755960;79;25652;-65